Time;durP1;ratioP1;P1;durP2;ratioP2;P2;SDS_P1;SDS_P2;PMS_P1;PMS_P2;Temp;Humidity;BMP_temperature;BMP_pressure;BME280_temperature;BME280_humidity;BME280_pressure;Samples;Min_cycle;Max_cycle;Signal;HPM_P1;HPM_P2
2021/06/04 00:05:42;;;;;;;8.5;6.1;;;;;;;8.56;100;99397.64;;;;
2021/06/04 00:15:38;;;;;;;12.9;7.1;;;;;;;8.55;100;99396.83;;;;
2021/06/04 00:25:37;;;;;;;10.7;6.9;;;;;;;8.4;100;99394.19;;;;
2021/06/04 00:35:35;;;;;;;11.3;7.9;;;;;;;8.18;100;99392.88;;;;
2021/06/04 00:45:33;;;;;;;13.3;10.3;;;;;;;8;100;99400.43;;;;
2021/06/04 00:55:31;;;;;;;15;11.2;;;;;;;7.93;100;99391.04;;;;
2021/06/04 01:05:29;;;;;;;13.2;10.5;;;;;;;7.84;100;99390.8;;;;
2021/06/04 01:15:34;;;;;;;11.1;6.6;;;;;;;7.82;100;99392.12;;;;
2021/06/04 01:25:30;;;;;;;11.4;8.7;;;;;;;7.76;100;99394.01;;;;
2021/06/04 01:35:27;;;;;;;8.6;6.2;;;;;;;7.73;100;99385.69;;;;
2021/06/04 01:45:28;;;;;;;9.1;6.3;;;;;;;7.63;100;99385.7;;;;
2021/06/04 01:55:20;;;;;;;9.6;6.3;;;;;;;7.58;100;99384.62;;;;
2021/06/04 02:05:19;;;;;;;15.8;7.8;;;;;;;7.5;100;99387.83;;;;
2021/06/04 02:15:17;;;;;;;14.5;9.5;;;;;;;7.35;100;99389.7;;;;
2021/06/04 02:25:15;;;;;;;9.7;7.3;;;;;;;7.19;100;99388.05;;;;
2021/06/04 02:35:13;;;;;;;7.1;5.1;;;;;;;7.06;100;99395.55;;;;
2021/06/04 02:45:11;;;;;;;10.3;6.6;;;;;;;7.05;100;99391.25;;;;
2021/06/04 02:55:09;;;;;;;12.1;9.8;;;;;;;7.03;100;99395.27;;;;
2021/06/04 03:05:07;;;;;;;10.1;7.3;;;;;;;7.08;100;99393.39;;;;
2021/06/04 03:15:06;;;;;;;12.1;8.8;;;;;;;7.22;100;99400.95;;;;
2021/06/04 03:25:04;;;;;;;11.6;8.4;;;;;;;7.42;100;99401.78;;;;
2021/06/04 03:35:02;;;;;;;13.9;9;;;;;;;7.74;100;99406.09;;;;
2021/06/04 03:45:00;;;;;;;10.3;8;;;;;;;8.08;100;99404.45;;;;
2021/06/04 03:54:59;;;;;;;10.2;8.9;;;;;;;8.43;100;99409.78;;;;
2021/06/04 04:04:58;;;;;;;13.2;10.3;;;;;;;8.86;100;99410.14;;;;
2021/06/04 04:14:55;;;;;;;13.3;10.2;;;;;;;9.34;100;99413.91;;;;
2021/06/04 04:24:53;;;;;;;11.1;9.2;;;;;;;9.8;100;99412.5;;;;
2021/06/04 04:34:52;;;;;;;13.8;10;;;;;;;10.36;100;99410.12;;;;
2021/06/04 04:44:50;;;;;;;12.7;9.1;;;;;;;11.02;100;99414.73;;;;
2021/06/04 04:54:49;;;;;;;13.7;9;;;;;;;11.66;100;99418.67;;;;
2021/06/04 05:04:47;;;;;;;12.6;7.3;;;;;;;12.15;100;99416.23;;;;
2021/06/04 05:14:46;;;;;;;13.7;8.4;;;;;;;12.68;100;99435.53;;;;
2021/06/04 05:24:45;;;;;;;9;7.1;;;;;;;13.26;100;99429.52;;;;
2021/06/04 05:34:44;;;;;;;8.6;5.8;;;;;;;13.76;100;99425.63;;;;
2021/06/04 05:44:46;;;;;;;13.4;8.9;;;;;;;14.19;100;99435.97;;;;
2021/06/04 05:54:42;;;;;;;14.9;8.7;;;;;;;14.69;100;99441.97;;;;
2021/06/04 06:04:41;;;;;;;12.5;7.6;;;;;;;15.31;100;99437.18;;;;
2021/06/04 06:14:40;;;;;;;8.9;5.5;;;;;;;15.84;100;99440.44;;;;
2021/06/04 06:24:39;;;;;;;10.5;6.1;;;;;;;16.24;97.91211;99437.52;;;;
2021/06/04 06:34:38;;;;;;;9.9;4.7;;;;;;;16.91;94.33789;99441.12;;;;
2021/06/04 06:44:38;;;;;;;11.7;5.7;;;;;;;17.29;88.53223;99438.33;;;;
2021/06/04 06:54:39;;;;;;;7.7;4.6;;;;;;;17.77;84.14453;99440.55;;;;
2021/06/04 07:04:37;;;;;;;9.7;5.3;;;;;;;18.17;86.78418;99446.3;;;;
2021/06/04 07:14:36;;;;;;;8.4;5.8;;;;;;;18.59;84.62012;99455.19;;;;
2021/06/04 07:24:35;;;;;;;9.7;4.4;;;;;;;19.08;83.1416;99459.55;;;;
2021/06/04 07:34:35;;;;;;;13.2;6.2;;;;;;;19.58;81.0957;99456.41;;;;
2021/06/04 07:44:35;;;;;;;9.5;5;;;;;;;20.06;78.26758;99449.97;;;;
2021/06/04 07:54:35;;;;;;;7.7;5.1;;;;;;;20.14;76.73633;99445.5;;;;
2021/06/04 08:04:34;;;;;;;7.3;3.7;;;;;;;20.37;77.91797;99438.35;;;;
2021/06/04 08:14:34;;;;;;;8;3.1;;;;;;;20.8;73.68262;99433.92;;;;
2021/06/04 08:24:34;;;;;;;10;5.2;;;;;;;21.26;72.62598;99424.88;;;;
2021/06/04 08:34:34;;;;;;;6.8;3.3;;;;;;;21.39;66.1084;99426.34;;;;
2021/06/04 08:44:45;;;;;;;7.8;3.5;;;;;;;21.68;66.2334;99419.52;;;;
2021/06/04 08:54:36;;;;;;;4.9;3;;;;;;;21.72;59.24219;99409.42;;;;
2021/06/04 09:04:34;;;;;;;4.3;2.2;;;;;;;21.75;55.7168;99410.64;;;;
2021/06/04 09:14:34;;;;;;;4.1;2.3;;;;;;;22.1;51.91309;99410.58;;;;
2021/06/04 09:24:34;;;;;;;4.8;2.1;;;;;;;22.21;52.60352;99401.38;;;;
2021/06/04 09:34:34;;;;;;;5.7;2.3;;;;;;;22.37;50.56543;99398.52;;;;
2021/06/04 09:44:34;;;;;;;3.5;1.9;;;;;;;22.46;50.75195;99399.84;;;;
2021/06/04 09:54:34;;;;;;;8.6;2.5;;;;;;;22.59;52.2627;99387.5;;;;
2021/06/04 10:04:34;;;;;;;8.3;3;;;;;;;22.63;49.53125;99389.55;;;;
2021/06/04 10:14:40;;;;;;;4.3;2.3;;;;;;;22.96;49.41699;99376.74;;;;
2021/06/04 10:24:34;;;;;;;3.8;2.1;;;;;;;23.41;49.26758;99370.33;;;;
2021/06/04 10:34:40;;;;;;;7.8;3.1;;;;;;;23.46;49.92871;99358.98;;;;
2021/06/04 10:44:35;;;;;;;5.4;2.8;;;;;;;23.81;51.25684;99358.6;;;;
2021/06/04 10:54:35;;;;;;;6.4;2.3;;;;;;;24.1;46.56055;99348.69;;;;
2021/06/04 11:04:35;;;;;;;9.9;4.3;;;;;;;23.85;45.95996;99355.89;;;;
2021/06/04 11:14:36;;;;;;;5.3;2.8;;;;;;;24.02;50.22461;99338.76;;;;
2021/06/04 11:24:36;;;;;;;3.9;2.7;;;;;;;24.07;46.18262;99330.16;;;;
2021/06/04 11:34:36;;;;;;;5.5;2.5;;;;;;;24.05;45.28711;99332.52;;;;
2021/06/04 11:44:42;;;;;;;6.2;3.3;;;;;;;24.17;44.91113;99325.95;;;;
2021/06/04 11:54:38;;;;;;;4.2;2.7;;;;;;;24.76;47.04102;99317.37;;;;
2021/06/04 12:04:37;;;;;;;9.1;3.9;;;;;;;25.01;47.26758;99312.03;;;;
2021/06/04 12:14:38;;;;;;;5.4;2.8;;;;;;;24.76;44.14746;99300.83;;;;
2021/06/04 12:24:38;;;;;;;7.5;2.9;;;;;;;24.75;43.22852;99296.48;;;;
2021/06/04 12:34:39;;;;;;;5.2;2.6;;;;;;;24.98;43.6748;99290.75;;;;
2021/06/04 12:44:39;;;;;;;5.4;2.9;;;;;;;25.17;40.90039;99282.16;;;;
2021/06/04 12:54:39;;;;;;;8.4;2.7;;;;;;;25.47;42.80273;99281.89;;;;
2021/06/04 13:04:43;;;;;;;5.3;2.7;;;;;;;24.83;40.39844;99270.56;;;;
2021/06/04 13:14:42;;;;;;;6;3.5;;;;;;;25.29;43.1748;99261.72;;;;
2021/06/04 13:24:45;;;;;;;4.8;2.3;;;;;;;25.2;41.39941;99264.83;;;;
2021/06/04 13:34:44;;;;;;;10.4;2.8;;;;;;;25.77;40.48242;99253.97;;;;
2021/06/04 13:44:46;;;;;;;8.2;2.9;;;;;;;25.64;40.35254;99247.25;;;;
2021/06/04 13:54:54;;;;;;;5.7;3.1;;;;;;;25.63;41.1543;99229.89;;;;
2021/06/04 14:04:43;;;;;;;6.2;2.9;;;;;;;26.43;38.11816;99238.61;;;;
2021/06/04 14:14:43;;;;;;;6.8;2.9;;;;;;;25.73;37.11328;99231.88;;;;
2021/06/04 14:24:54;;;;;;;6.1;3.4;;;;;;;26.55;35.57031;99238.2;;;;
2021/06/04 14:34:44;;;;;;;7.9;3.8;;;;;;;27.05;37.51758;99227;;;;
2021/06/04 14:44:45;;;;;;;4.5;3.1;;;;;;;27.73;39.4375;99228.25;;;;
2021/06/04 14:54:47;;;;;;;5.9;3;;;;;;;27.18;32.76074;99226.14;;;;
2021/06/04 15:04:46;;;;;;;5.8;2.7;;;;;;;29.78;28.74512;99229.56;;;;
2021/06/04 15:14:47;;;;;;;4.5;2.6;;;;;;;31.01;26.80859;99216.72;;;;
2021/06/04 15:24:49;;;;;;;4.3;2.2;;;;;;;32.39;26.80664;99206.7;;;;
2021/06/04 15:34:50;;;;;;;8.3;2.8;;;;;;;32.72;24.75488;99210.23;;;;
2021/06/04 15:44:52;;;;;;;5.3;2.5;;;;;;;33.08;24.30371;99200.84;;;;
2021/06/04 15:54:54;;;;;;;6.9;2.8;;;;;;;33.48;24.83105;99195.64;;;;
2021/06/04 16:04:55;;;;;;;22.7;16.2;;;;;;;33.38;24.13867;99192.75;;;;
2021/06/04 16:14:57;;;;;;;8.2;4.5;;;;;;;34.14;23.62305;99200.33;;;;
2021/06/04 16:24:59;;;;;;;13.2;9.5;;;;;;;33.45;23.88867;99185.36;;;;
2021/06/04 16:35:01;;;;;;;10.5;5.9;;;;;;;31.36;25.67676;99174.17;;;;
2021/06/04 16:45:02;;;;;;;24.7;18.7;;;;;;;29.98;29.06836;99171.33;;;;
2021/06/04 16:55:04;;;;;;;14.8;9.9;;;;;;;29.07;29.69043;99176.23;;;;
2021/06/04 17:05:05;;;;;;;7.9;4;;;;;;;28.21;31.93164;99175.61;;;;
2021/06/04 17:15:06;;;;;;;7;3;;;;;;;26.88;33.52246;99160.28;;;;
2021/06/04 17:25:07;;;;;;;4.4;2.7;;;;;;;25.45;36.75977;99154.51;;;;
2021/06/04 17:35:08;;;;;;;5.5;2.5;;;;;;;26.83;34.0166;99155.16;;;;
2021/06/04 17:45:09;;;;;;;5.7;2.4;;;;;;;25.94;34.90723;99165.6;;;;
2021/06/04 17:55:09;;;;;;;6.2;2.9;;;;;;;23.98;38.4873;99162.48;;;;
2021/06/04 18:05:12;;;;;;;6.2;2.8;;;;;;;22.75;41.44238;99156.55;;;;
2021/06/04 18:15:10;;;;;;;9.5;3.5;;;;;;;21.68;44.02148;99142.41;;;;
2021/06/04 18:25:10;;;;;;;5.9;3.2;;;;;;;20.82;46.97852;99144.75;;;;
2021/06/04 18:35:12;;;;;;;10.1;4.4;;;;;;;20.26;48.97949;99147.06;;;;
2021/06/04 18:45:10;;;;;;;6.6;4.6;;;;;;;19.64;53.19434;99150.69;;;;
2021/06/04 18:55:10;;;;;;;8.6;6.2;;;;;;;18.99;57.50488;99155.59;;;;
2021/06/04 19:05:10;;;;;;;14.8;9.5;;;;;;;18.44;59.47754;99150.89;;;;
2021/06/04 19:15:09;;;;;;;15.7;10;;;;;;;18.01;61.78418;99165.16;;;;
2021/06/04 19:25:09;;;;;;;17.2;9.3;;;;;;;17.69;62.92578;99168.81;;;;
2021/06/04 19:35:08;;;;;;;17.2;11;;;;;;;17.39;64.96582;99164.67;;;;
2021/06/04 19:45:07;;;;;;;19.3;12.6;;;;;;;17.26;64.02734;99166.55;;;;
2021/06/04 19:55:07;;;;;;;23.7;20.2;;;;;;;17.19;64.04004;99160.86;;;;
2021/06/04 20:05:06;;;;;;;22.8;15.4;;;;;;;17.05;63.59375;99160.36;;;;
2021/06/04 20:15:06;;;;;;;16;12;;;;;;;17.13;62.85645;99155.96;;;;
2021/06/04 20:25:05;;;;;;;32;19.6;;;;;;;16.94;63.48633;99157.27;;;;
2021/06/04 20:35:04;;;;;;;30.5;16.4;;;;;;;16.85;63.11719;99142.95;;;;
2021/06/04 20:45:03;;;;;;;25.7;17.8;;;;;;;16.79;61.80957;99144.29;;;;
2021/06/04 20:55:03;;;;;;;22.2;15.6;;;;;;;16.58;61.56152;99140.8;;;;
2021/06/04 21:05:03;;;;;;;27.4;16.3;;;;;;;16.38;65.93066;99144.3;;;;
2021/06/04 21:15:01;;;;;;;17.7;14.2;;;;;;;16.22;69.81641;99138.63;;;;
2021/06/04 21:25:00;;;;;;;24.5;17.4;;;;;;;16.1;69.14258;99133.13;;;;
2021/06/04 21:34:59;;;;;;;20.5;15.1;;;;;;;16.02;79.66113;99134.77;;;;
2021/06/04 21:44:59;;;;;;;20.8;15.3;;;;;;;15.92;80.65918;99121.56;;;;
2021/06/04 21:54:58;;;;;;;19.2;15.6;;;;;;;15.87;83.64844;99112.79;;;;
2021/06/04 22:04:57;;;;;;;26.5;15.5;;;;;;;15.96;80.09473;99114.34;;;;
2021/06/04 22:14:56;;;;;;;25.7;17.9;;;;;;;15.99;80.41016;99116.41;;;;
2021/06/04 22:24:55;;;;;;;16.8;12.7;;;;;;;15.96;81.73828;99103.48;;;;
2021/06/04 22:34:54;;;;;;;19.4;15.5;;;;;;;15.92;82.55273;99107.97;;;;
2021/06/04 22:44:53;;;;;;;34.3;16.9;;;;;;;15.83;83.58496;99107.21;;;;
2021/06/04 22:54:53;;;;;;;25.3;16.5;;;;;;;15.71;84.20996;99098.98;;;;
2021/06/04 23:04:52;;;;;;;13.3;11.9;;;;;;;15.52;90.08887;99082.29;;;;
2021/06/04 23:14:51;;;;;;;12.3;11;;;;;;;15.52;86.95215;99083.09;;;;
2021/06/04 23:24:50;;;;;;;21.1;12.7;;;;;;;15.54;87.64941;99096.36;;;;
2021/06/04 23:34:49;;;;;;;18.1;12.4;;;;;;;15.57;87.11035;99096.5;;;;
2021/06/04 23:44:48;;;;;;;12.4;11.1;;;;;;;15.57;86.86035;99088.35;;;;
2021/06/04 23:54:48;;;;;;;15.8;11.8;;;;;;;15.49;90.10645;99077.52;;;;
